sensor_id;sensor_type;location;lat;lon;timestamp;pressure;altitude;pressure_sealevel;temperature
34807;BMP280;18310;55.586;12.286;2023-07-29T00:02:39;100757.00;;;22.44
34807;BMP280;18310;55.586;12.286;2023-07-29T00:05:42;100770.03;;;22.47
34807;BMP280;18310;55.586;12.286;2023-07-29T00:08:45;100765.63;;;22.50
34807;BMP280;18310;55.586;12.286;2023-07-29T00:11:50;100759.63;;;22.51
34807;BMP280;18310;55.586;12.286;2023-07-29T00:14:57;100760.41;;;22.52
34807;BMP280;18310;55.586;12.286;2023-07-29T00:18:00;100759.22;;;22.53
34807;BMP280;18310;55.586;12.286;2023-07-29T00:21:04;100757.63;;;22.52
34807;BMP280;18310;55.586;12.286;2023-07-29T00:24:07;100754.84;;;22.52
34807;BMP280;18310;55.586;12.286;2023-07-29T00:27:11;100750.09;;;22.52
34807;BMP280;18310;55.586;12.286;2023-07-29T00:30:14;100745.41;;;22.49
34807;BMP280;18310;55.586;12.286;2023-07-29T00:33:17;100740.72;;;22.46
34807;BMP280;18310;55.586;12.286;2023-07-29T00:36:22;100746.25;;;22.46
34807;BMP280;18310;55.586;12.286;2023-07-29T00:39:25;100753.81;;;22.46
34807;BMP280;18310;55.586;12.286;2023-07-29T00:42:30;100746.63;;;22.48
34807;BMP280;18310;55.586;12.286;2023-07-29T00:45:33;100744.63;;;22.49
34807;BMP280;18310;55.586;12.286;2023-07-29T00:48:37;100739.09;;;22.49
34807;BMP280;18310;55.586;12.286;2023-07-29T00:51:40;100733.16;;;22.47
34807;BMP280;18310;55.586;12.286;2023-07-29T00:54:43;100732.38;;;22.46
34807;BMP280;18310;55.586;12.286;2023-07-29T00:57:47;100733.44;;;22.52
34807;BMP280;18310;55.586;12.286;2023-07-29T01:00:54;100718.00;;;22.51
34807;BMP280;18310;55.586;12.286;2023-07-29T01:03:57;100718.09;;;22.48
34807;BMP280;18310;55.586;12.286;2023-07-29T01:07:09;100705.34;;;22.50
34807;BMP280;18310;55.586;12.286;2023-07-29T01:10:21;100718.09;;;22.64
34807;BMP280;18310;55.586;12.286;2023-07-29T01:13:33;100717.97;;;22.67
34807;BMP280;18310;55.586;12.286;2023-07-29T01:16:41;100703.50;;;22.60
34807;BMP280;18310;55.586;12.286;2023-07-29T01:19:55;100711.53;;;22.70
34807;BMP280;18310;55.586;12.286;2023-07-29T01:23:01;100711.13;;;22.72
34807;BMP280;18310;55.586;12.286;2023-07-29T01:26:05;100711.03;;;22.75
34807;BMP280;18310;55.586;12.286;2023-07-29T01:29:08;100707.34;;;22.78
34807;BMP280;18310;55.586;12.286;2023-07-29T01:32:16;100698.28;;;22.78
34807;BMP280;18310;55.586;12.286;2023-07-29T01:35:24;100700.91;;;22.81
34807;BMP280;18310;55.586;12.286;2023-07-29T01:38:33;100697.63;;;22.86
34807;BMP280;18310;55.586;12.286;2023-07-29T01:41:38;100706.63;;;22.91
34807;BMP280;18310;55.586;12.286;2023-07-29T01:44:42;100705.38;;;22.92
34807;BMP280;18310;55.586;12.286;2023-07-29T01:47:46;100697.00;;;22.95
34807;BMP280;18310;55.586;12.286;2023-07-29T01:50:49;100703.66;;;22.98
34807;BMP280;18310;55.586;12.286;2023-07-29T01:53:52;100696.91;;;22.99
34807;BMP280;18310;55.586;12.286;2023-07-29T01:56:58;100695.66;;;23.00
34807;BMP280;18310;55.586;12.286;2023-07-29T02:00:02;100694.44;;;23.01
34807;BMP280;18310;55.586;12.286;2023-07-29T02:03:05;100692.75;;;23.03
34807;BMP280;18310;55.586;12.286;2023-07-29T02:06:38;100677.66;;;23.04
34807;BMP280;18310;55.586;12.286;2023-07-29T02:09:42;100681.56;;;23.07
34807;BMP280;18310;55.586;12.286;2023-07-29T02:12:45;100677.94;;;23.10
34807;BMP280;18310;55.586;12.286;2023-07-29T02:15:48;100677.00;;;23.13
34807;BMP280;18310;55.586;12.286;2023-07-29T02:18:51;100667.94;;;23.12
34807;BMP280;18310;55.586;12.286;2023-07-29T02:21:58;100677.78;;;23.26
34807;BMP280;18310;55.586;12.286;2023-07-29T02:25:02;100682.03;;;23.30
34807;BMP280;18310;55.586;12.286;2023-07-29T02:28:06;100673.19;;;23.35
34807;BMP280;18310;55.586;12.286;2023-07-29T02:31:11;100666.72;;;23.38
34807;BMP280;18310;55.586;12.286;2023-07-29T02:34:15;100677.91;;;23.47
34807;BMP280;18310;55.586;12.286;2023-07-29T02:37:19;100673.81;;;23.52
34807;BMP280;18310;55.586;12.286;2023-07-29T02:40:23;100676.97;;;23.54
34807;BMP280;18310;55.586;12.286;2023-07-29T02:43:28;100672.94;;;23.55
34807;BMP280;18310;55.586;12.286;2023-07-29T02:46:31;100667.59;;;23.61
34807;BMP280;18310;55.586;12.286;2023-07-29T02:49:34;100666.34;;;23.62
34807;BMP280;18310;55.586;12.286;2023-07-29T02:52:39;100663.16;;;23.63
34807;BMP280;18310;55.586;12.286;2023-07-29T02:55:42;100664.72;;;23.64
34807;BMP280;18310;55.586;12.286;2023-07-29T02:58:45;100661.94;;;23.64
34807;BMP280;18310;55.586;12.286;2023-07-29T03:01:48;100660.69;;;23.65
34807;BMP280;18310;55.586;12.286;2023-07-29T03:04:51;100656.81;;;23.63
34807;BMP280;18310;55.586;12.286;2023-07-29T03:07:57;100662.81;;;23.61
34807;BMP280;18310;55.586;12.286;2023-07-29T03:11:05;100664.94;;;23.57
34807;BMP280;18310;55.586;12.286;2023-07-29T03:14:09;100666.16;;;23.56
34807;BMP280;18310;55.586;12.286;2023-07-29T03:17:12;100670.81;;;23.59
34807;BMP280;18310;55.586;12.286;2023-07-29T03:20:39;100671.91;;;23.62
34807;BMP280;18310;55.586;12.286;2023-07-29T03:23:42;100673.38;;;23.66
34807;BMP280;18310;55.586;12.286;2023-07-29T03:26:45;100668.47;;;23.70
34807;BMP280;18310;55.586;12.286;2023-07-29T03:29:48;100661.22;;;23.73
34807;BMP280;18310;55.586;12.286;2023-07-29T03:32:52;100664.25;;;23.78
34807;BMP280;18310;55.586;12.286;2023-07-29T03:35:56;100663.22;;;23.85
34807;BMP280;18310;55.586;12.286;2023-07-29T03:39:00;100663.53;;;23.87
34807;BMP280;18310;55.586;12.286;2023-07-29T03:42:05;100656.75;;;23.88
34807;BMP280;18310;55.586;12.286;2023-07-29T03:45:09;100651.75;;;23.95
34807;BMP280;18310;55.586;12.286;2023-07-29T03:48:12;100644.06;;;23.87
34807;BMP280;18310;55.586;12.286;2023-07-29T03:51:17;100656.09;;;23.96
34807;BMP280;18310;55.586;12.286;2023-07-29T03:54:21;100653.19;;;24.00
34807;BMP280;18310;55.586;12.286;2023-07-29T03:57:24;100651.50;;;24.02
34807;BMP280;18310;55.586;12.286;2023-07-29T04:00:27;100642.25;;;24.05
34807;BMP280;18310;55.586;12.286;2023-07-29T04:03:30;100634.56;;;24.10
34807;BMP280;18310;55.586;12.286;2023-07-29T04:06:35;100636.81;;;24.15
34807;BMP280;18310;55.586;12.286;2023-07-29T04:09:38;100646.09;;;24.21
34807;BMP280;18310;55.586;12.286;2023-07-29T04:12:43;100645.53;;;24.26
34807;BMP280;18310;55.586;12.286;2023-07-29T04:15:46;100643.72;;;24.32
34807;BMP280;18310;55.586;12.286;2023-07-29T04:18:49;100641.47;;;24.39
34807;BMP280;18310;55.586;12.286;2023-07-29T04:21:54;100646.00;;;24.46
34807;BMP280;18310;55.586;12.286;2023-07-29T04:24:58;100649.44;;;24.50
34807;BMP280;18310;55.586;12.286;2023-07-29T04:28:01;100641.69;;;24.54
34807;BMP280;18310;55.586;12.286;2023-07-29T04:31:05;100650.41;;;24.56
34807;BMP280;18310;55.586;12.286;2023-07-29T04:34:08;100644.25;;;24.61
34807;BMP280;18310;55.586;12.286;2023-07-29T04:37:13;100643.22;;;24.67
34807;BMP280;18310;55.586;12.286;2023-07-29T04:40:16;100639.97;;;24.69
34807;BMP280;18310;55.586;12.286;2023-07-29T04:43:19;100647.47;;;24.81
34807;BMP280;18310;55.586;12.286;2023-07-29T04:46:22;100642.72;;;24.91
34807;BMP280;18310;55.586;12.286;2023-07-29T04:49:25;100640.88;;;24.97
34807;BMP280;18310;55.586;12.286;2023-07-29T04:52:30;100635.19;;;25.00
34807;BMP280;18310;55.586;12.286;2023-07-29T04:55:33;100635.81;;;25.04
34807;BMP280;18310;55.586;12.286;2023-07-29T04:58:36;100636.31;;;25.12
34807;BMP280;18310;55.586;12.286;2023-07-29T05:01:40;100624.13;;;25.18
34807;BMP280;18310;55.586;12.286;2023-07-29T05:04:45;100626.63;;;25.25
34807;BMP280;18310;55.586;12.286;2023-07-29T05:07:50;100623.84;;;25.25
34807;BMP280;18310;55.586;12.286;2023-07-29T05:10:53;100621.66;;;25.29
34807;BMP280;18310;55.586;12.286;2023-07-29T05:13:56;100621.19;;;25.31
34807;BMP280;18310;55.586;12.286;2023-07-29T05:16:59;100631.13;;;25.32
34807;BMP280;18310;55.586;12.286;2023-07-29T05:20:03;100623.06;;;25.34
34807;BMP280;18310;55.586;12.286;2023-07-29T05:23:08;100630.53;;;25.37
34807;BMP280;18310;55.586;12.286;2023-07-29T05:26:11;100630.38;;;25.41
34807;BMP280;18310;55.586;12.286;2023-07-29T05:29:14;100628.53;;;25.47
34807;BMP280;18310;55.586;12.286;2023-07-29T05:32:17;100627.00;;;25.55
34807;BMP280;18310;55.586;12.286;2023-07-29T05:35:20;100625.50;;;25.63
34807;BMP280;18310;55.586;12.286;2023-07-29T05:38:25;100623.63;;;25.69
34807;BMP280;18310;55.586;12.286;2023-07-29T05:41:28;100622.38;;;25.70
34807;BMP280;18310;55.586;12.286;2023-07-29T05:44:31;100614.66;;;25.65
34807;BMP280;18310;55.586;12.286;2023-07-29T05:47:35;100614.00;;;25.70
34807;BMP280;18310;55.586;12.286;2023-07-29T05:50:38;100612.00;;;25.70
34807;BMP280;18310;55.586;12.286;2023-07-29T05:53:43;100602.84;;;25.70
34807;BMP280;18310;55.586;12.286;2023-07-29T05:56:46;100603.19;;;25.72
34807;BMP280;18310;55.586;12.286;2023-07-29T05:59:49;100603.63;;;25.70
34807;BMP280;18310;55.586;12.286;2023-07-29T06:02:53;100609.84;;;25.74
34807;BMP280;18310;55.586;12.286;2023-07-29T06:05:56;100610.47;;;25.78
34807;BMP280;18310;55.586;12.286;2023-07-29T06:09:01;100610.00;;;25.89
34807;BMP280;18310;55.586;12.286;2023-07-29T06:12:04;100602.88;;;25.97
34807;BMP280;18310;55.586;12.286;2023-07-29T06:15:08;100598.84;;;26.07
34807;BMP280;18310;55.586;12.286;2023-07-29T06:18:12;100591.03;;;26.38
34807;BMP280;18310;55.586;12.286;2023-07-29T06:21:15;100592.00;;;27.10
34807;BMP280;18310;55.586;12.286;2023-07-29T06:24:23;100582.69;;;27.89
34807;BMP280;18310;55.586;12.286;2023-07-29T06:27:26;100592.25;;;28.56
34807;BMP280;18310;55.586;12.286;2023-07-29T06:30:30;100577.59;;;29.16
34807;BMP280;18310;55.586;12.286;2023-07-29T06:33:33;100584.03;;;29.68
34807;BMP280;18310;55.586;12.286;2023-07-29T06:36:36;100577.16;;;29.89
34807;BMP280;18310;55.586;12.286;2023-07-29T06:39:41;100581.66;;;29.81
34807;BMP280;18310;55.586;12.286;2023-07-29T06:42:45;100578.16;;;29.91
34807;BMP280;18310;55.586;12.286;2023-07-29T06:45:48;100574.00;;;30.07
34807;BMP280;18310;55.586;12.286;2023-07-29T06:48:51;100584.75;;;30.14
34807;BMP280;18310;55.586;12.286;2023-07-29T06:51:54;100582.91;;;30.06
34807;BMP280;18310;55.586;12.286;2023-07-29T06:54:59;100586.56;;;30.12
34807;BMP280;18310;55.586;12.286;2023-07-29T06:58:02;100591.94;;;30.46
34807;BMP280;18310;55.586;12.286;2023-07-29T07:01:05;100582.63;;;30.66
34807;BMP280;18310;55.586;12.286;2023-07-29T07:04:08;100596.50;;;30.81
34807;BMP280;18310;55.586;12.286;2023-07-29T07:07:12;100588.13;;;30.92
34807;BMP280;18310;55.586;12.286;2023-07-29T07:10:16;100591.13;;;30.83
34807;BMP280;18310;55.586;12.286;2023-07-29T07:13:19;100600.47;;;30.63
34807;BMP280;18310;55.586;12.286;2023-07-29T07:16:23;100597.22;;;30.76
34807;BMP280;18310;55.586;12.286;2023-07-29T07:19:26;100593.03;;;31.02
34807;BMP280;18310;55.586;12.286;2023-07-29T07:22:29;100586.22;;;31.31
34807;BMP280;18310;55.586;12.286;2023-07-29T07:25:34;100589.53;;;31.18
34807;BMP280;18310;55.586;12.286;2023-07-29T07:28:37;100583.84;;;31.02
34807;BMP280;18310;55.586;12.286;2023-07-29T07:31:40;100587.59;;;30.88
34807;BMP280;18310;55.586;12.286;2023-07-29T07:34:44;100582.31;;;30.64
34807;BMP280;18310;55.586;12.286;2023-07-29T07:37:47;100591.88;;;30.41
34807;BMP280;18310;55.586;12.286;2023-07-29T07:40:55;100592.16;;;30.12
34807;BMP280;18310;55.586;12.286;2023-07-29T07:43:58;100597.22;;;29.82
34807;BMP280;18310;55.586;12.286;2023-07-29T07:47:02;100595.88;;;29.52
34807;BMP280;18310;55.586;12.286;2023-07-29T07:50:06;100591.97;;;29.23
34807;BMP280;18310;55.586;12.286;2023-07-29T07:53:09;100582.47;;;29.01
34807;BMP280;18310;55.586;12.286;2023-07-29T07:56:14;100575.31;;;28.80
34807;BMP280;18310;55.586;12.286;2023-07-29T07:59:18;100573.50;;;28.62
34807;BMP280;18310;55.586;12.286;2023-07-29T08:02:21;100573.25;;;28.45
34807;BMP280;18310;55.586;12.286;2023-07-29T08:05:25;100564.84;;;28.31
34807;BMP280;18310;55.586;12.286;2023-07-29T08:08:28;100569.59;;;28.25
34807;BMP280;18310;55.586;12.286;2023-07-29T08:11:32;100576.94;;;28.22
34807;BMP280;18310;55.586;12.286;2023-07-29T08:14:36;100569.78;;;28.21
34807;BMP280;18310;55.586;12.286;2023-07-29T08:17:40;100566.88;;;28.30
34807;BMP280;18310;55.586;12.286;2023-07-29T08:20:51;100552.53;;;28.37
34807;BMP280;18310;55.586;12.286;2023-07-29T08:23:54;100558.00;;;28.46
34807;BMP280;18310;55.586;12.286;2023-07-29T08:27:00;100555.09;;;28.55
34807;BMP280;18310;55.586;12.286;2023-07-29T08:30:03;100539.69;;;28.66
34807;BMP280;18310;55.586;12.286;2023-07-29T08:33:06;100553.22;;;28.67
34807;BMP280;18310;55.586;12.286;2023-07-29T08:36:10;100552.28;;;28.90
34807;BMP280;18310;55.586;12.286;2023-07-29T08:39:13;100545.63;;;29.08
34807;BMP280;18310;55.586;12.286;2023-07-29T08:42:19;100535.34;;;29.19
34807;BMP280;18310;55.586;12.286;2023-07-29T08:45:23;100541.56;;;29.29
34807;BMP280;18310;55.586;12.286;2023-07-29T08:48:32;100537.34;;;29.39
34807;BMP280;18310;55.586;12.286;2023-07-29T08:51:36;100538.09;;;29.40
34807;BMP280;18310;55.586;12.286;2023-07-29T08:54:39;100540.13;;;29.39
34807;BMP280;18310;55.586;12.286;2023-07-29T08:57:44;100541.75;;;29.46
34807;BMP280;18310;55.586;12.286;2023-07-29T09:00:49;100536.25;;;29.57
34807;BMP280;18310;55.586;12.286;2023-07-29T09:03:53;100541.91;;;29.62
34807;BMP280;18310;55.586;12.286;2023-07-29T09:06:56;100544.25;;;29.64
34807;BMP280;18310;55.586;12.286;2023-07-29T09:10:01;100542.69;;;29.63
34807;BMP280;18310;55.586;12.286;2023-07-29T09:13:06;100540.31;;;29.56
34807;BMP280;18310;55.586;12.286;2023-07-29T09:16:10;100537.47;;;29.50
34807;BMP280;18310;55.586;12.286;2023-07-29T09:19:15;100534.88;;;29.47
34807;BMP280;18310;55.586;12.286;2023-07-29T09:22:27;100538.06;;;29.60
34807;BMP280;18310;55.586;12.286;2023-07-29T09:25:30;100538.06;;;29.60
34807;BMP280;18310;55.586;12.286;2023-07-29T09:28:34;100518.94;;;29.58
34807;BMP280;18310;55.586;12.286;2023-07-29T09:31:37;100531.31;;;29.72
34807;BMP280;18310;55.586;12.286;2023-07-29T09:34:41;100531.09;;;29.75
34807;BMP280;18310;55.586;12.286;2023-07-29T09:37:46;100534.72;;;29.81
34807;BMP280;18310;55.586;12.286;2023-07-29T09:44:00;100525.34;;;29.90
34807;BMP280;18310;55.586;12.286;2023-07-29T09:47:04;100526.66;;;29.94
34807;BMP280;18310;55.586;12.286;2023-07-29T09:50:09;100535.91;;;30.01
34807;BMP280;18310;55.586;12.286;2023-07-29T09:53:12;100525.50;;;30.07
34807;BMP280;18310;55.586;12.286;2023-07-29T09:56:15;100529.28;;;30.04
34807;BMP280;18310;55.586;12.286;2023-07-29T09:59:22;100527.53;;;30.06
34807;BMP280;18310;55.586;12.286;2023-07-29T10:02:26;100527.78;;;30.08
34807;BMP280;18310;55.586;12.286;2023-07-29T10:05:30;100536.75;;;30.12
34807;BMP280;18310;55.586;12.286;2023-07-29T10:08:33;100531.41;;;30.14
34807;BMP280;18310;55.586;12.286;2023-07-29T10:11:41;100535.31;;;30.22
34807;BMP280;18310;55.586;12.286;2023-07-29T10:14:47;100534.28;;;30.25
34807;BMP280;18310;55.586;12.286;2023-07-29T10:17:51;100535.34;;;30.28
34807;BMP280;18310;55.586;12.286;2023-07-29T10:20:56;100534.44;;;30.47
34807;BMP280;18310;55.586;12.286;2023-07-29T10:24:30;100537.38;;;30.64
34807;BMP280;18310;55.586;12.286;2023-07-29T10:27:41;100537.19;;;30.79
34807;BMP280;18310;55.586;12.286;2023-07-29T10:30:44;100535.19;;;30.85
34807;BMP280;18310;55.586;12.286;2023-07-29T10:33:48;100529.84;;;30.92
34807;BMP280;18310;55.586;12.286;2023-07-29T10:36:52;100532.69;;;30.98
34807;BMP280;18310;55.586;12.286;2023-07-29T10:39:57;100534.47;;;31.01
34807;BMP280;18310;55.586;12.286;2023-07-29T10:43:02;100538.06;;;31.01
34807;BMP280;18310;55.586;12.286;2023-07-29T10:46:15;100537.81;;;30.99
34807;BMP280;18310;55.586;12.286;2023-07-29T10:49:22;100535.72;;;30.94
34807;BMP280;18310;55.586;12.286;2023-07-29T10:52:31;100532.63;;;30.87
34807;BMP280;18310;55.586;12.286;2023-07-29T10:55:41;100524.88;;;30.70
34807;BMP280;18310;55.586;12.286;2023-07-29T10:58:46;100525.66;;;30.71
34807;BMP280;18310;55.586;12.286;2023-07-29T11:01:52;100523.59;;;30.66
34807;BMP280;18310;55.586;12.286;2023-07-29T11:04:56;100529.19;;;30.60
34807;BMP280;18310;55.586;12.286;2023-07-29T11:08:16;100519.97;;;30.54
34807;BMP280;18310;55.586;12.286;2023-07-29T11:11:21;100526.56;;;30.46
34807;BMP280;18310;55.586;12.286;2023-07-29T11:14:24;100516.00;;;30.35
34807;BMP280;18310;55.586;12.286;2023-07-29T11:17:28;100517.50;;;30.31
34807;BMP280;18310;55.586;12.286;2023-07-29T11:20:33;100518.50;;;30.28
34807;BMP280;18310;55.586;12.286;2023-07-29T11:23:36;100510.56;;;30.21
34807;BMP280;18310;55.586;12.286;2023-07-29T11:26:47;100518.91;;;30.10
34807;BMP280;18310;55.586;12.286;2023-07-29T11:29:50;100514.22;;;30.01
34807;BMP280;18310;55.586;12.286;2023-07-29T11:32:54;100515.66;;;29.91
34807;BMP280;18310;55.586;12.286;2023-07-29T11:35:57;100515.81;;;29.82
34807;BMP280;18310;55.586;12.286;2023-07-29T11:39:09;100508.16;;;29.77
34807;BMP280;18310;55.586;12.286;2023-07-29T11:42:15;100499.22;;;29.78
34807;BMP280;18310;55.586;12.286;2023-07-29T11:45:19;100492.84;;;29.78
34807;BMP280;18310;55.586;12.286;2023-07-29T11:48:28;100487.41;;;29.69
34807;BMP280;18310;55.586;12.286;2023-07-29T11:51:32;100474.63;;;29.68
34807;BMP280;18310;55.586;12.286;2023-07-29T11:54:35;100476.75;;;29.73
34807;BMP280;18310;55.586;12.286;2023-07-29T11:57:41;100444.81;;;29.70
34807;BMP280;18310;55.586;12.286;2023-07-29T12:00:44;100475.34;;;29.88
34807;BMP280;18310;55.586;12.286;2023-07-29T12:03:48;100475.16;;;29.98
34807;BMP280;18310;55.586;12.286;2023-07-29T12:07:17;100475.22;;;30.09
34807;BMP280;18310;55.586;12.286;2023-07-29T12:10:21;100460.44;;;30.14
34807;BMP280;18310;55.586;12.286;2023-07-29T12:13:24;100455.59;;;30.14
34807;BMP280;18310;55.586;12.286;2023-07-29T12:16:28;100470.06;;;30.02
34807;BMP280;18310;55.586;12.286;2023-07-29T12:19:38;100448.13;;;30.00
34807;BMP280;18310;55.586;12.286;2023-07-29T12:25:58;100467.25;;;30.02
34807;BMP280;18310;55.586;12.286;2023-07-29T12:29:11;100463.16;;;29.97
34807;BMP280;18310;55.586;12.286;2023-07-29T12:32:14;100456.88;;;29.82
34807;BMP280;18310;55.586;12.286;2023-07-29T12:35:17;100462.47;;;29.76
34807;BMP280;18310;55.586;12.286;2023-07-29T12:38:21;100449.38;;;29.68
34807;BMP280;18310;55.586;12.286;2023-07-29T12:41:26;100451.00;;;29.80
34807;BMP280;18310;55.586;12.286;2023-07-29T12:44:30;100445.66;;;29.82
34807;BMP280;18310;55.586;12.286;2023-07-29T12:47:34;100447.50;;;29.90
34807;BMP280;18310;55.586;12.286;2023-07-29T12:50:37;100448.56;;;29.93
34807;BMP280;18310;55.586;12.286;2023-07-29T12:53:40;100441.66;;;29.88
34807;BMP280;18310;55.586;12.286;2023-07-29T12:56:47;100439.06;;;29.85
34807;BMP280;18310;55.586;12.286;2023-07-29T12:59:50;100453.03;;;29.79
34807;BMP280;18310;55.586;12.286;2023-07-29T13:02:54;100458.34;;;29.72
34807;BMP280;18310;55.586;12.286;2023-07-29T13:05:57;100452.66;;;29.61
34807;BMP280;18310;55.586;12.286;2023-07-29T13:09:01;100450.63;;;29.61
34807;BMP280;18310;55.586;12.286;2023-07-29T13:12:07;100463.69;;;29.70
34807;BMP280;18310;55.586;12.286;2023-07-29T13:15:12;100459.34;;;29.69
34807;BMP280;18310;55.586;12.286;2023-07-29T13:18:15;100465.47;;;29.67
34807;BMP280;18310;55.586;12.286;2023-07-29T13:21:18;100458.53;;;29.63
34807;BMP280;18310;55.586;12.286;2023-07-29T13:24:21;100470.47;;;29.58
34807;BMP280;18310;55.586;12.286;2023-07-29T13:28:03;100470.53;;;29.38
34807;BMP280;18310;55.586;12.286;2023-07-29T13:31:06;100466.84;;;29.26
34807;BMP280;18310;55.586;12.286;2023-07-29T13:34:10;100474.91;;;29.18
34807;BMP280;18310;55.586;12.286;2023-07-29T13:37:13;100473.31;;;29.12
34807;BMP280;18310;55.586;12.286;2023-07-29T13:40:17;100473.78;;;29.10
34807;BMP280;18310;55.586;12.286;2023-07-29T13:43:21;100468.97;;;28.91
34807;BMP280;18310;55.586;12.286;2023-07-29T13:46:24;100464.56;;;28.84
34807;BMP280;18310;55.586;12.286;2023-07-29T13:49:27;100468.84;;;28.80
34807;BMP280;18310;55.586;12.286;2023-07-29T13:52:30;100463.84;;;28.69
34807;BMP280;18310;55.586;12.286;2023-07-29T13:55:33;100465.53;;;28.61
34807;BMP280;18310;55.586;12.286;2023-07-29T13:58:38;100464.22;;;28.42
34807;BMP280;18310;55.586;12.286;2023-07-29T14:01:41;100461.28;;;28.31
34807;BMP280;18310;55.586;12.286;2023-07-29T14:04:44;100444.78;;;28.18
34807;BMP280;18310;55.586;12.286;2023-07-29T14:07:47;100449.38;;;28.01
34807;BMP280;18310;55.586;12.286;2023-07-29T14:10:50;100440.38;;;27.97
34807;BMP280;18310;55.586;12.286;2023-07-29T14:13:55;100435.97;;;27.91
34807;BMP280;18310;55.586;12.286;2023-07-29T14:16:58;100440.31;;;27.92
34807;BMP280;18310;55.586;12.286;2023-07-29T14:20:01;100441.19;;;27.83
34807;BMP280;18310;55.586;12.286;2023-07-29T14:23:04;100434.63;;;27.71
34807;BMP280;18310;55.586;12.286;2023-07-29T14:26:08;100439.34;;;27.65
34807;BMP280;18310;55.586;12.286;2023-07-29T14:29:12;100433.66;;;27.60
34807;BMP280;18310;55.586;12.286;2023-07-29T14:32:16;100443.19;;;27.53
34807;BMP280;18310;55.586;12.286;2023-07-29T14:35:21;100436.25;;;27.49
34807;BMP280;18310;55.586;12.286;2023-07-29T14:38:24;100429.81;;;27.43
34807;BMP280;18310;55.586;12.286;2023-07-29T14:41:28;100428.34;;;27.47
34807;BMP280;18310;55.586;12.286;2023-07-29T14:44:33;100419.94;;;27.62
34807;BMP280;18310;55.586;12.286;2023-07-29T14:47:36;100425.19;;;27.69
34807;BMP280;18310;55.586;12.286;2023-07-29T14:50:39;100420.38;;;27.69
34807;BMP280;18310;55.586;12.286;2023-07-29T14:53:43;100421.22;;;27.75
34807;BMP280;18310;55.586;12.286;2023-07-29T14:56:46;100427.69;;;27.81
34807;BMP280;18310;55.586;12.286;2023-07-29T14:59:50;100420.63;;;27.86
34807;BMP280;18310;55.586;12.286;2023-07-29T15:02:54;100417.19;;;27.76
34807;BMP280;18310;55.586;12.286;2023-07-29T15:05:57;100407.50;;;27.77
34807;BMP280;18310;55.586;12.286;2023-07-29T15:09:02;100417.63;;;27.75
34807;BMP280;18310;55.586;12.286;2023-07-29T15:12:06;100412.47;;;27.68
34807;BMP280;18310;55.586;12.286;2023-07-29T15:15:11;100415.81;;;27.72
34807;BMP280;18310;55.586;12.286;2023-07-29T15:18:15;100421.59;;;27.68
34807;BMP280;18310;55.586;12.286;2023-07-29T15:21:18;100408.78;;;27.76
34807;BMP280;18310;55.586;12.286;2023-07-29T15:24:21;100416.66;;;27.93
34807;BMP280;18310;55.586;12.286;2023-07-29T15:27:24;100408.06;;;28.11
34807;BMP280;18310;55.586;12.286;2023-07-29T15:30:28;100410.09;;;28.30
34807;BMP280;18310;55.586;12.286;2023-07-29T15:33:31;100416.00;;;28.52
34807;BMP280;18310;55.586;12.286;2023-07-29T15:36:38;100409.66;;;28.72
34807;BMP280;18310;55.586;12.286;2023-07-29T15:39:41;100417.97;;;28.87
34807;BMP280;18310;55.586;12.286;2023-07-29T15:42:44;100413.38;;;29.09
34807;BMP280;18310;55.586;12.286;2023-07-29T15:45:49;100410.81;;;29.32
34807;BMP280;18310;55.586;12.286;2023-07-29T15:48:52;100421.41;;;29.48
34807;BMP280;18310;55.586;12.286;2023-07-29T15:51:57;100422.28;;;29.59
34807;BMP280;18310;55.586;12.286;2023-07-29T15:55:00;100419.00;;;29.66
34807;BMP280;18310;55.586;12.286;2023-07-29T15:58:03;100423.91;;;29.71
34807;BMP280;18310;55.586;12.286;2023-07-29T16:01:09;100414.50;;;29.74
34807;BMP280;18310;55.586;12.286;2023-07-29T16:04:13;100412.50;;;29.80
34807;BMP280;18310;55.586;12.286;2023-07-29T16:07:16;100409.41;;;29.73
34807;BMP280;18310;55.586;12.286;2023-07-29T16:10:19;100405.84;;;29.78
34807;BMP280;18310;55.586;12.286;2023-07-29T16:13:22;100405.09;;;29.77
34807;BMP280;18310;55.586;12.286;2023-07-29T16:16:27;100403.53;;;29.76
34807;BMP280;18310;55.586;12.286;2023-07-29T16:19:30;100414.75;;;29.76
34807;BMP280;18310;55.586;12.286;2023-07-29T16:22:33;100397.41;;;29.72
34807;BMP280;18310;55.586;12.286;2023-07-29T16:25:37;100409.09;;;29.71
34807;BMP280;18310;55.586;12.286;2023-07-29T16:28:40;100405.50;;;29.65
34807;BMP280;18310;55.586;12.286;2023-07-29T16:31:46;100411.63;;;29.63
34807;BMP280;18310;55.586;12.286;2023-07-29T16:34:53;100409.53;;;29.58
34807;BMP280;18310;55.586;12.286;2023-07-29T16:37:58;100403.88;;;29.53
34807;BMP280;18310;55.586;12.286;2023-07-29T16:41:02;100403.06;;;29.47
34807;BMP280;18310;55.586;12.286;2023-07-29T16:44:25;100402.50;;;29.43
34807;BMP280;18310;55.586;12.286;2023-07-29T16:47:29;100405.06;;;29.46
34807;BMP280;18310;55.586;12.286;2023-07-29T16:50:33;100407.69;;;29.50
34807;BMP280;18310;55.586;12.286;2023-07-29T16:53:37;100400.50;;;29.49
34807;BMP280;18310;55.586;12.286;2023-07-29T16:56:40;100396.06;;;29.37
34807;BMP280;18310;55.586;12.286;2023-07-29T16:59:44;100397.41;;;29.41
34807;BMP280;18310;55.586;12.286;2023-07-29T17:02:48;100406.31;;;29.40
34807;BMP280;18310;55.586;12.286;2023-07-29T17:05:51;100394.53;;;29.36
34807;BMP280;18310;55.586;12.286;2023-07-29T17:08:57;100396.53;;;29.30
34807;BMP280;18310;55.586;12.286;2023-07-29T17:12:00;100404.09;;;29.23
34807;BMP280;18310;55.586;12.286;2023-07-29T17:15:04;100403.81;;;29.21
34807;BMP280;18310;55.586;12.286;2023-07-29T17:18:11;100403.28;;;29.17
34807;BMP280;18310;55.586;12.286;2023-07-29T17:21:14;100404.53;;;29.16